Time;durP1;ratioP1;P1;durP2;ratioP2;P2;SDS_P1;SDS_P2;PMS_P1;PMS_P2;Temp;Humidity;BMP_temperature;BMP_pressure;BME280_temperature;BME280_humidity;BME280_pressure;Samples;Min_cycle;Max_cycle;Signal;HPM_P1;HPM_P2
2023/05/04 00:02:19;;;;;;;11.50;4.85;;;7.30;99.90;;;;;;5078504;28;20059;-59
2023/05/04 00:04:45;;;;;;;13.68;5.30;;;7.20;99.90;;;;;;5079281;28;20383;-60
2023/05/04 00:07:11;;;;;;;12.50;5.32;;;7.20;99.90;;;;;;5077307;28;20051;-60
2023/05/04 00:09:37;;;;;;;12.13;5.10;;;7.20;99.90;;;;;;5079924;28;20046;-60
2023/05/04 00:12:02;;;;;;;12.27;5.20;;;7.20;99.90;;;;;;5077538;28;20044;-60
2023/05/04 00:14:28;;;;;;;9.90;4.65;;;7.20;99.90;;;;;;5079507;28;20511;-59
2023/05/04 00:16:54;;;;;;;13.27;5.18;;;7.20;99.90;;;;;;5078382;28;20048;-59
2023/05/04 00:19:19;;;;;;;14.60;5.32;;;7.10;99.90;;;;;;5060205;28;20095;-59
2023/05/04 00:21:45;;;;;;;12.73;5.60;;;7.10;99.90;;;;;;5079175;28;20071;-60
2023/05/04 00:24:11;;;;;;;10.27;5.05;;;7.10;99.90;;;;;;5077254;28;20531;-59
2023/05/04 00:26:36;;;;;;;15.00;5.63;;;7.10;99.90;;;;;;5079403;28;20092;-59
2023/05/04 00:29:02;;;;;;;13.13;5.40;;;7.10;99.90;;;;;;5077062;28;20049;-59
2023/05/04 00:31:28;;;;;;;9.60;5.13;;;7.00;99.90;;;;;;5079235;28;20042;-59
2023/05/04 00:33:53;;;;;;;9.50;4.90;;;7.00;99.90;;;;;;5077322;28;20044;-59
2023/05/04 00:36:19;;;;;;;12.65;6.32;;;7.10;99.90;;;;;;5078400;28;20048;-59
2023/05/04 00:38:47;;;;;;;14.90;6.28;;;7.00;99.90;;;;;;5078423;28;20037;-59
2023/05/04 00:41:13;;;;;;;13.55;5.82;;;7.00;99.90;;;;;;5077553;28;20083;-59
2023/05/04 00:43:39;;;;;;;14.57;5.95;;;7.00;99.90;;;;;;5079224;28;20047;-59
2023/05/04 00:46:05;;;;;;;10.63;5.32;;;7.10;99.90;;;;;;5076695;28;20040;-59
2023/05/04 00:48:31;;;;;;;11.52;5.53;;;7.00;99.90;;;;;;5091555;28;20036;-59
2023/05/04 00:50:57;;;;;;;10.90;5.82;;;6.90;99.90;;;;;;5077405;28;20062;-59
2023/05/04 00:53:22;;;;;;;10.90;5.15;;;7.00;99.90;;;;;;5078160;28;20068;-59
2023/05/04 00:55:48;;;;;;;12.77;5.40;;;6.90;99.90;;;;;;5078090;28;20059;-59
2023/05/04 00:58:14;;;;;;;15.90;6.75;;;6.80;99.90;;;;;;5077273;28;20041;-60
2023/05/04 01:00:40;;;;;;;10.60;5.13;;;6.80;99.90;;;;;;5078478;28;20522;-60
2023/05/04 01:03:08;;;;;;;12.70;5.80;;;6.80;99.90;;;;;;5076443;28;20049;-60
2023/05/04 01:05:37;;;;;;;12.27;5.70;;;6.80;99.90;;;;;;5079066;28;20047;-61
2023/05/04 01:08:14;;;;;;;11.73;5.22;;;6.80;99.90;;;;;;5077034;28;20141;-60
2023/05/04 01:10:48;;;;;;;9.32;5.68;;;6.80;99.90;;;;;;5076693;28;20048;-61
2023/05/04 01:13:15;;;;;;;9.95;5.18;;;6.70;99.90;;;;;;5078415;28;20044;-60
2023/05/04 01:15:41;;;;;;;13.10;5.90;;;6.80;99.90;;;;;;5076387;28;20535;-59
2023/05/04 01:18:08;;;;;;;13.10;5.72;;;6.70;99.90;;;;;;5078740;28;20032;-58
2023/05/04 01:20:34;;;;;;;12.77;5.57;;;6.70;99.90;;;;;;5076536;28;20055;-59
2023/05/04 01:23:01;;;;;;;12.32;6.20;;;6.70;99.90;;;;;;5060343;28;20447;-60
2023/05/04 01:25:32;;;;;;;12.68;6.20;;;6.70;99.90;;;;;;5077249;28;20044;-59
2023/05/04 01:28:10;;;;;;;13.82;6.57;;;6.70;99.90;;;;;;5077142;28;20048;-59
2023/05/04 01:30:42;;;;;;;13.13;6.10;;;6.60;99.90;;;;;;5078234;28;20109;-59
2023/05/04 01:33:08;;;;;;;10.98;5.85;;;6.60;99.90;;;;;;5076300;28;20044;-59
2023/05/04 01:35:35;;;;;;;9.93;5.32;;;6.60;99.90;;;;;;5078615;28;20501;-60
2023/05/04 01:38:01;;;;;;;14.18;6.03;;;6.60;99.90;;;;;;5058435;28;20047;-60
2023/05/04 01:40:26;;;;;;;12.23;5.32;;;6.60;99.90;;;;;;5077434;28;20063;-60
2023/05/04 01:42:52;;;;;;;13.70;6.10;;;6.50;99.90;;;;;;5059629;28;20040;-59
2023/05/04 01:45:18;;;;;;;13.13;7.15;;;6.50;99.90;;;;;;5076824;28;20048;-59
2023/05/04 01:47:44;;;;;;;11.95;5.65;;;6.50;99.90;;;;;;5088683;28;20040;-58
2023/05/04 01:50:10;;;;;;;12.50;5.35;;;6.50;99.90;;;;;;5077994;28;20046;-59
2023/05/04 01:52:35;;;;;;;11.68;5.70;;;6.50;99.90;;;;;;5078547;28;20052;-59
2023/05/04 01:55:01;;;;;;;13.30;5.82;;;6.50;99.90;;;;;;5057797;28;20499;-59
2023/05/04 01:57:27;;;;;;;12.30;6.15;;;6.50;99.90;;;;;;5077848;28;20048;-59
2023/05/04 01:59:52;;;;;;;13.30;5.63;;;6.50;99.90;;;;;;5076759;28;20094;-59
2023/05/04 02:02:18;;;;;;;11.13;5.35;;;6.40;99.90;;;;;;5076639;28;20062;-59
2023/05/04 02:04:43;;;;;;;12.88;5.80;;;6.40;99.90;;;;;;5077963;28;20047;-60
2023/05/04 02:07:09;;;;;;;12.38;5.97;;;6.40;99.90;;;;;;5075792;28;20033;-58
2023/05/04 02:09:35;;;;;;;10.63;5.45;;;6.40;99.90;;;;;;5078272;28;20045;-59
2023/05/04 02:12:01;;;;;;;10.80;5.70;;;6.40;99.90;;;;;;5076172;28;20048;-60
2023/05/04 02:14:27;;;;;;;12.48;5.40;;;6.40;99.90;;;;;;5077645;28;20090;-59
2023/05/04 02:16:53;;;;;;;12.90;6.38;;;6.40;99.90;;;;;;5077001;28;20063;-60
2023/05/04 02:19:18;;;;;;;10.68;5.90;;;6.40;99.90;;;;;;5058477;28;20048;-59
2023/05/04 02:21:44;;;;;;;12.93;5.85;;;6.40;99.90;;;;;;5078183;28;20096;-60
2023/05/04 02:24:10;;;;;;;13.23;5.32;;;6.40;99.90;;;;;;5079348;28;20044;-60
2023/05/04 02:26:36;;;;;;;11.90;5.70;;;6.30;99.90;;;;;;5081666;28;20446;-59
2023/05/04 02:29:02;;;;;;;13.25;5.78;;;6.40;99.90;;;;;;5044523;28;20190;-60
2023/05/04 02:31:28;;;;;;;10.05;5.65;;;6.40;99.90;;;;;;5081424;28;20120;-59
2023/05/04 02:33:54;;;;;;;17.80;6.20;;;6.40;99.90;;;;;;5080121;28;20044;-59
2023/05/04 02:36:19;;;;;;;11.68;6.10;;;6.40;99.90;;;;;;5080406;28;20048;-59
2023/05/04 02:38:45;;;;;;;11.25;5.60;;;6.40;99.90;;;;;;5080787;28;20045;-59
2023/05/04 02:41:11;;;;;;;14.10;5.78;;;6.30;99.90;;;;;;5061420;28;20053;-59
2023/05/04 02:43:37;;;;;;;11.88;5.75;;;6.40;99.90;;;;;;5063273;28;20079;-58
2023/05/04 02:46:02;;;;;;;14.88;6.70;;;6.30;99.90;;;;;;5079048;28;20041;-59
2023/05/04 02:48:28;;;;;;;9.98;5.78;;;6.30;99.90;;;;;;5094082;28;20130;-60
2023/05/04 02:50:55;;;;;;;14.00;6.22;;;6.30;99.90;;;;;;5061719;28;20040;-59
2023/05/04 02:53:21;;;;;;;11.27;5.72;;;6.40;99.90;;;;;;5080207;28;20484;-59
2023/05/04 02:55:47;;;;;;;11.30;5.90;;;6.40;99.90;;;;;;5080309;28;20053;-59
2023/05/04 02:58:12;;;;;;;13.70;6.43;;;6.40;99.90;;;;;;5079647;28;20123;-59
2023/05/04 03:00:38;;;;;;;14.40;6.50;;;6.30;99.90;;;;;;5080518;28;20067;-60
2023/05/04 03:03:04;;;;;;;14.27;6.13;;;6.30;99.90;;;;;;5078998;28;20037;-59
2023/05/04 03:05:30;;;;;;;12.43;6.25;;;6.30;99.90;;;;;;5080610;28;20047;-59
2023/05/04 03:07:56;;;;;;;12.95;5.97;;;6.40;99.90;;;;;;5078719;28;20407;-59
2023/05/04 03:10:21;;;;;;;12.05;6.03;;;6.20;99.90;;;;;;5080281;28;20036;-59
2023/05/04 03:12:47;;;;;;;16.67;7.05;;;6.30;99.90;;;;;;5080012;28;20044;-59
2023/05/04 03:15:12;;;;;;;11.07;6.15;;;6.20;99.90;;;;;;5079164;28;20059;-60
2023/05/04 03:17:38;;;;;;;15.20;6.75;;;6.30;99.90;;;;;;5080597;28;20075;-60
2023/05/04 03:20:04;;;;;;;13.00;6.30;;;6.30;99.90;;;;;;5078549;28;20075;-60
2023/05/04 03:22:30;;;;;;;15.38;6.43;;;6.30;99.90;;;;;;5080603;28;20115;-59
2023/05/04 03:24:56;;;;;;;16.83;7.60;;;6.40;99.90;;;;;;5077729;28;20056;-59
2023/05/04 03:27:21;;;;;;;20.67;7.95;;;6.30;99.90;;;;;;5080306;28;20045;-57
2023/05/04 03:29:47;;;;;;;14.07;6.45;;;6.30;99.90;;;;;;5079166;28;20068;-59
2023/05/04 03:32:13;;;;;;;12.90;6.25;;;6.30;99.90;;;;;;5079163;28;20036;-59
2023/05/04 03:34:38;;;;;;;16.25;6.93;;;6.30;99.90;;;;;;5079027;28;20051;-59
2023/05/04 03:37:04;;;;;;;12.52;6.43;;;6.40;99.90;;;;;;5043446;28;20100;-59
2023/05/04 03:39:30;;;;;;;13.07;6.28;;;6.40;99.90;;;;;;5080639;28;20071;-59
2023/05/04 03:41:56;;;;;;;13.32;6.45;;;6.30;99.90;;;;;;5059932;28;20489;-59
2023/05/04 03:44:22;;;;;;;11.38;6.38;;;6.40;99.90;;;;;;5062208;28;20123;-58
2023/05/04 03:46:47;;;;;;;13.70;6.10;;;6.30;99.90;;;;;;5081388;28;20040;-59
2023/05/04 03:49:13;;;;;;;13.30;5.85;;;6.30;99.90;;;;;;5088878;28;20076;-59
2023/05/04 03:51:39;;;;;;;15.77;7.00;;;6.40;99.90;;;;;;5079340;28;20416;-59
2023/05/04 03:54:05;;;;;;;12.00;5.97;;;6.30;99.90;;;;;;5060134;28;20036;-60
2023/05/04 03:56:30;;;;;;;11.90;6.20;;;6.30;99.90;;;;;;5079343;28;20116;-59
2023/05/04 03:58:56;;;;;;;14.57;6.00;;;6.40;99.90;;;;;;5077530;28;20076;-58
2023/05/04 04:01:21;;;;;;;16.55;7.75;;;6.40;99.90;;;;;;5079698;28;20052;-59
2023/05/04 04:03:47;;;;;;;13.55;6.43;;;6.30;99.90;;;;;;5078087;28;20186;-60
2023/05/04 04:06:13;;;;;;;14.32;6.55;;;6.30;99.90;;;;;;5078686;28;20055;-60
2023/05/04 04:08:39;;;;;;;13.05;6.35;;;6.30;99.90;;;;;;5079240;28;20044;-59
2023/05/04 04:11:04;;;;;;;12.43;6.38;;;6.40;99.90;;;;;;5077917;28;20041;-58
2023/05/04 04:13:30;;;;;;;15.02;7.05;;;6.40;99.90;;;;;;5079735;28;20284;-59
2023/05/04 04:15:56;;;;;;;15.15;7.13;;;6.40;99.90;;;;;;5077247;28;20080;-59
2023/05/04 04:18:23;;;;;;;12.50;6.82;;;6.40;99.90;;;;;;5079822;28;20040;-59
2023/05/04 04:20:49;;;;;;;12.82;6.78;;;6.40;99.90;;;;;;5077578;28;20123;-59
2023/05/04 04:23:18;;;;;;;11.88;6.82;;;6.40;99.90;;;;;;5078939;28;20063;-59
2023/05/04 04:25:46;;;;;;;13.43;6.70;;;6.40;99.90;;;;;;5078610;28;20056;-59
2023/05/04 04:28:13;;;;;;;14.40;6.72;;;6.40;99.90;;;;;;5077494;28;20507;-59
2023/05/04 04:30:38;;;;;;;15.27;6.47;;;6.40;99.90;;;;;;5079120;28;20044;-60
2023/05/04 04:33:04;;;;;;;15.32;6.43;;;6.30;99.90;;;;;;5076916;28;20129;-57
2023/05/04 04:35:31;;;;;;;13.73;6.05;;;6.40;99.90;;;;;;5079074;28;20059;-59
2023/05/04 04:37:57;;;;;;;13.80;6.57;;;6.50;99.90;;;;;;5077309;28;20044;-59
2023/05/04 04:40:24;;;;;;;15.90;7.25;;;6.50;99.90;;;;;;5078429;28;20384;-60
2023/05/04 04:42:51;;;;;;;12.90;7.93;;;6.50;99.90;;;;;;5078386;28;20125;-60
2023/05/04 04:45:17;;;;;;;13.15;7.18;;;6.50;99.90;;;;;;5077422;28;20577;-58
2023/05/04 04:47:44;;;;;;;14.77;8.13;;;6.50;99.90;;;;;;5089308;28;20040;-59
2023/05/04 04:50:10;;;;;;;16.08;8.25;;;6.50;99.90;;;;;;5078555;28;20041;-59
2023/05/04 04:52:36;;;;;;;13.68;6.95;;;6.60;99.90;;;;;;5078959;28;20067;-59
2023/05/04 04:55:06;;;;;;;14.20;7.53;;;6.60;99.90;;;;;;5077033;28;20040;-59
2023/05/04 04:57:32;;;;;;;17.17;6.75;;;6.60;99.90;;;;;;5078038;28;20407;-59
2023/05/04 04:59:59;;;;;;;13.40;7.45;;;6.70;99.90;;;;;;5077791;28;20056;-60
2023/05/04 05:02:26;;;;;;;15.63;7.18;;;6.60;99.90;;;;;;5077313;28;20070;-60
2023/05/04 05:04:53;;;;;;;17.45;7.20;;;6.80;99.90;;;;;;5078713;28;20052;-59
2023/05/04 05:07:19;;;;;;;13.98;6.75;;;6.80;99.90;;;;;;5076328;28;20499;-60
2023/05/04 05:09:45;;;;;;;12.73;6.93;;;6.80;99.90;;;;;;5078921;28;20097;-59
2023/05/04 05:12:10;;;;;;;14.10;6.70;;;6.80;99.90;;;;;;5077025;28;20067;-59
2023/05/04 05:14:36;;;;;;;13.02;6.95;;;6.90;99.90;;;;;;5078100;28;20085;-60
2023/05/04 05:17:02;;;;;;;12.57;6.60;;;6.90;99.90;;;;;;5077563;28;20076;-60
2023/05/04 05:19:28;;;;;;;15.00;6.43;;;7.00;99.90;;;;;;5077145;28;20076;-60
2023/05/04 05:21:55;;;;;;;14.02;6.68;;;7.00;99.90;;;;;;5078729;28;20052;-59
2023/05/04 05:24:22;;;;;;;13.68;5.78;;;7.00;99.90;;;;;;5076335;28;20041;-60
2023/05/04 05:26:47;;;;;;;15.00;6.30;;;7.00;99.90;;;;;;5060752;28;20044;-59
2023/05/04 05:29:13;;;;;;;13.40;6.97;;;7.00;99.90;;;;;;5076278;28;20051;-59
2023/05/04 05:31:39;;;;;;;17.55;6.22;;;7.10;99.90;;;;;;5059974;28;20462;-59
2023/05/04 05:34:05;;;;;;;13.80;6.63;;;7.10;99.90;;;;;;5077324;28;20041;-58
2023/05/04 05:36:31;;;;;;;15.30;6.55;;;7.20;99.90;;;;;;5076747;28;20094;-59
2023/05/04 05:38:57;;;;;;;13.13;6.45;;;7.30;99.90;;;;;;5074959;28;20485;-59
2023/05/04 05:41:22;;;;;;;13.65;6.30;;;7.30;99.90;;;;;;5054407;28;20138;-59
2023/05/04 05:43:48;;;;;;;15.20;6.18;;;7.20;99.90;;;;;;5074584;28;20053;-59
2023/05/04 05:46:14;;;;;;;14.18;6.40;;;7.30;99.90;;;;;;5072113;28;20127;-59
2023/05/04 05:48:41;;;;;;;15.45;6.47;;;7.40;99.90;;;;;;5086966;28;20039;-59
2023/05/04 05:51:07;;;;;;;12.00;6.18;;;7.50;99.90;;;;;;5072915;28;20573;-59
2023/05/04 05:53:32;;;;;;;11.88;6.15;;;7.60;99.90;;;;;;5054761;28;20068;-60
2023/05/04 05:55:58;;;;;;;13.73;6.03;;;7.70;99.90;;;;;;5073941;28;21928;-60
2023/05/04 05:58:24;;;;;;;15.95;6.60;;;7.70;99.90;;;;;;5057125;28;20091;-59
2023/05/04 06:00:49;;;;;;;12.55;5.90;;;7.60;99.90;;;;;;5077683;28;20095;-59
2023/05/04 06:03:15;;;;;;;12.00;6.05;;;7.70;99.90;;;;;;5075757;28;20108;-59
2023/05/04 06:05:41;;;;;;;16.52;6.70;;;7.80;99.90;;;;;;5077985;28;20056;-59
2023/05/04 06:08:06;;;;;;;13.32;6.07;;;7.80;99.90;;;;;;5058556;28;20045;-59
2023/05/04 06:10:33;;;;;;;14.20;6.57;;;7.90;99.90;;;;;;5076655;28;20569;-60
2023/05/04 06:13:00;;;;;;;14.27;5.95;;;8.00;99.90;;;;;;5077305;28;20083;-59
2023/05/04 06:15:25;;;;;;;12.63;6.07;;;8.10;99.90;;;;;;5056626;28;20058;-60
2023/05/04 06:17:51;;;;;;;15.25;6.25;;;8.10;99.90;;;;;;5077419;28;20056;-60
2023/05/04 06:20:17;;;;;;;12.90;5.60;;;8.30;99.90;;;;;;5075436;28;20041;-59
2023/05/04 06:22:42;;;;;;;13.93;6.68;;;8.30;99.90;;;;;;5077129;28;20056;-59
2023/05/04 06:25:08;;;;;;;14.43;6.57;;;8.40;99.90;;;;;;5076023;28;20138;-59
2023/05/04 06:27:34;;;;;;;12.60;5.35;;;8.40;99.90;;;;;;5075028;28;20138;-59
2023/05/04 06:30:00;;;;;;;14.98;6.22;;;8.40;99.90;;;;;;5073125;28;20044;-57
2023/05/04 06:32:25;;;;;;;13.98;6.03;;;8.60;99.90;;;;;;5081700;28;20051;-60
2023/05/04 06:34:54;;;;;;;12.90;6.63;;;8.60;99.90;;;;;;5085476;28;20147;-59
2023/05/04 06:37:20;;;;;;;12.40;5.60;;;8.70;99.90;;;;;;5081167;28;20381;-60
2023/05/04 06:39:46;;;;;;;14.00;6.53;;;8.80;99.90;;;;;;5084467;28;20072;-60
2023/05/04 06:42:11;;;;;;;11.98;6.13;;;8.80;99.90;;;;;;5086403;28;20036;-60
2023/05/04 06:44:38;;;;;;;12.90;5.82;;;8.90;99.90;;;;;;5059767;28;20044;-60
2023/05/04 06:47:06;;;;;;;10.98;6.00;;;8.90;99.90;;;;;;5077039;28;20274;-59
2023/05/04 06:49:32;;;;;;;11.02;6.10;;;9.00;99.90;;;;;;5061294;28;20049;-60
2023/05/04 06:51:58;;;;;;;11.98;6.03;;;9.00;99.90;;;;;;5085556;28;20544;-59
2023/05/04 06:54:24;;;;;;;10.63;6.10;;;9.00;99.90;;;;;;5084275;28;20055;-59
2023/05/04 06:56:50;;;;;;;11.52;6.03;;;9.00;99.90;;;;;;5084438;28;20951;-60
2023/05/04 06:59:19;;;;;;;13.52;6.22;;;9.10;99.90;;;;;;5084275;28;20044;-59
2023/05/04 07:01:46;;;;;;;17.23;6.55;;;9.20;99.90;;;;;;5078044;28;20056;-59
2023/05/04 07:04:12;;;;;;;13.02;6.32;;;9.20;99.90;;;;;;5067657;28;20559;-58
2023/05/04 07:06:41;;;;;;;14.30;6.00;;;9.40;99.90;;;;;;5083221;28;20044;-59
2023/05/04 07:09:07;;;;;;;13.65;6.50;;;9.40;99.90;;;;;;5095413;28;20054;-59
2023/05/04 07:11:32;;;;;;;13.27;6.18;;;9.50;99.90;;;;;;5087602;28;20044;-59
2023/05/04 07:13:58;;;;;;;11.23;5.95;;;9.40;99.90;;;;;;5085980;28;20108;-59
2023/05/04 07:16:25;;;;;;;14.35;6.15;;;9.50;99.90;;;;;;5086151;28;20045;-59
2023/05/04 07:18:50;;;;;;;15.23;6.57;;;9.60;99.90;;;;;;5074246;28;20625;-61
2023/05/04 07:21:16;;;;;;;13.30;6.90;;;9.70;99.90;;;;;;5055447;28;20051;-59
2023/05/04 07:23:42;;;;;;;14.10;6.88;;;9.70;99.90;;;;;;5074994;28;20119;-58
2023/05/04 07:26:07;;;;;;;15.30;6.38;;;9.80;99.90;;;;;;5093790;28;20459;-58
2023/05/04 07:28:33;;;;;;;12.82;6.40;;;9.90;99.90;;;;;;5094175;28;20552;-60
2023/05/04 07:30:59;;;;;;;12.15;6.30;;;10.00;99.90;;;;;;5062256;28;20044;-59
2023/05/04 07:33:25;;;;;;;16.42;6.53;;;10.00;99.90;;;;;;5076765;28;20048;-59
2023/05/04 07:36:00;;;;;;;14.27;6.10;;;10.00;99.90;;;;;;5069538;28;20055;-58
2023/05/04 07:38:26;;;;;;;14.85;6.75;;;10.10;99.90;;;;;;5056755;28;20044;-59
2023/05/04 07:40:55;;;;;;;15.88;6.65;;;10.00;99.90;;;;;;5084089;28;20490;-59
2023/05/04 07:43:21;;;;;;;13.20;6.07;;;10.10;99.90;;;;;;5096390;28;20040;-58
2023/05/04 07:45:47;;;;;;;14.32;6.07;;;10.20;99.90;;;;;;5094262;28;20046;-59
2023/05/04 07:48:12;;;;;;;13.05;6.22;;;10.20;99.90;;;;;;5060426;28;20036;-59
2023/05/04 07:50:39;;;;;;;13.93;6.15;;;10.30;99.90;;;;;;5073896;28;20053;-59
2023/05/04 07:53:04;;;;;;;13.98;6.95;;;10.40;99.90;;;;;;5057380;28;20052;-59
2023/05/04 07:55:30;;;;;;;13.10;6.20;;;10.50;99.90;;;;;;5075064;28;20048;-58
2023/05/04 07:57:56;;;;;;;15.50;6.85;;;10.60;99.90;;;;;;5075596;28;20524;-59
2023/05/04 08:00:22;;;;;;;14.68;7.00;;;10.70;99.90;;;;;;5087376;28;20060;-59
2023/05/04 08:02:48;;;;;;;13.05;6.38;;;10.80;99.90;;;;;;5073290;28;20052;-59
2023/05/04 08:05:14;;;;;;;10.32;5.95;;;10.90;99.90;;;;;;5069013;28;20102;-59
2023/05/04 08:07:39;;;;;;;12.85;6.10;;;11.00;99.90;;;;;;5094163;28;20040;-59
2023/05/04 08:10:06;;;;;;;13.27;6.68;;;11.00;99.90;;;;;;5086393;28;20606;-58
2023/05/04 08:12:31;;;;;;;14.02;6.18;;;11.10;99.90;;;;;;5074242;28;20033;-57
2023/05/04 08:14:57;;;;;;;13.55;6.65;;;11.20;99.90;;;;;;5073918;28;20044;-59
2023/05/04 08:17:23;;;;;;;12.20;6.45;;;11.40;99.90;;;;;;5075008;28;20048;-59
2023/05/04 08:19:49;;;;;;;9.68;5.60;;;11.40;99.90;;;;;;5072859;28;20052;-56
2023/05/04 08:22:15;;;;;;;12.45;5.50;;;11.50;99.90;;;;;;5075288;28;20048;-59
2023/05/04 08:24:40;;;;;;;11.27;5.72;;;11.50;99.90;;;;;;5073220;28;20053;-58
2023/05/04 08:27:06;;;;;;;15.65;5.78;;;11.70;99.90;;;;;;5074709;28;20221;-58
2023/05/04 08:29:32;;;;;;;9.80;5.15;;;11.70;99.90;;;;;;5072936;28;20459;-59
2023/05/04 08:31:58;;;;;;;12.68;5.40;;;11.80;99.90;;;;;;5074438;28;20103;-58
2023/05/04 08:34:24;;;;;;;12.80;6.00;;;12.00;99.90;;;;;;5040204;28;20047;-57
2023/05/04 08:36:51;;;;;;;10.82;5.05;;;12.00;99.90;;;;;;5072765;28;20411;-59
2023/05/04 08:39:19;;;;;;;11.63;5.10;;;12.10;99.90;;;;;;5074644;28;20052;-59
2023/05/04 08:41:45;;;;;;;13.32;5.70;;;12.00;99.90;;;;;;5072748;28;20086;-59
2023/05/04 08:44:11;;;;;;;12.43;5.07;;;12.20;99.90;;;;;;5074692;28;20048;-59
2023/05/04 08:46:38;;;;;;;13.30;5.55;;;12.20;99.90;;;;;;5076053;28;20044;-59
2023/05/04 08:49:04;;;;;;;12.65;6.05;;;12.30;99.90;;;;;;5073623;28;20076;-59
2023/05/04 08:51:33;;;;;;;10.43;5.60;;;12.50;99.90;;;;;;5055744;28;20068;-59
2023/05/04 08:54:00;;;;;;;12.68;5.65;;;12.60;99.90;;;;;;5070934;28;20274;-59
2023/05/04 08:56:26;;;;;;;10.45;5.38;;;12.70;99.90;;;;;;5073489;28;20067;-59
2023/05/04 08:58:56;;;;;;;13.00;6.03;;;12.80;99.90;;;;;;5071262;28;20052;-59
2023/05/04 09:01:22;;;;;;;14.23;4.90;;;12.90;99.90;;;;;;5072892;28;20055;-59
2023/05/04 09:03:48;;;;;;;12.80;5.07;;;13.00;99.90;;;;;;5077085;28;20088;-59
2023/05/04 09:06:14;;;;;;;12.18;5.63;;;13.00;99.90;;;;;;5076974;28;20494;-59
2023/05/04 09:08:40;;;;;;;12.80;6.30;;;13.00;99.90;;;;;;5077816;28;20258;-59
2023/05/04 09:11:06;;;;;;;13.90;5.90;;;13.10;99.90;;;;;;5075404;28;20044;-58
2023/05/04 09:13:32;;;;;;;11.23;5.45;;;13.10;99.90;;;;;;5076556;28;20047;-59
2023/05/04 09:15:58;;;;;;;13.30;6.05;;;13.30;99.90;;;;;;5075304;28;20060;-59
2023/05/04 09:18:44;;;;;;;11.90;6.25;;;13.10;99.90;;;;;;5077705;28;20032;-59
2023/05/04 09:21:11;;;;;;;15.50;6.03;;;13.20;99.90;;;;;;5056748;28;20057;-59
2023/05/04 09:23:50;;;;;;;11.10;6.07;;;13.40;99.90;;;;;;5066571;28;20072;-59
2023/05/04 09:26:29;;;;;;;11.90;6.10;;;13.30;99.90;;;;;;5078075;28;20055;-59
2023/05/04 09:28:55;;;;;;;12.20;5.47;;;13.40;99.90;;;;;;5075606;28;20094;-58
2023/05/04 09:31:22;;;;;;;12.32;5.82;;;13.60;99.90;;;;;;5076761;28;20044;-59
2023/05/04 09:33:48;;;;;;;9.57;4.85;;;13.70;99.90;;;;;;5076621;28;20037;-58
2023/05/04 09:36:16;;;;;;;12.80;5.25;;;13.70;99.90;;;;;;5076464;28;20044;-59
2023/05/04 09:38:43;;;;;;;11.90;5.82;;;13.70;99.90;;;;;;5077121;28;20040;-59
2023/05/04 09:41:09;;;;;;;10.90;5.05;;;14.00;99.90;;;;;;5075110;28;20070;-58
2023/05/04 09:43:42;;;;;;;9.90;5.25;;;13.90;99.90;;;;;;5082598;28;20044;-59
2023/05/04 09:46:18;;;;;;;12.18;5.25;;;14.10;99.90;;;;;;5089709;28;20163;-58
2023/05/04 09:48:54;;;;;;;13.60;6.10;;;14.20;99.90;;;;;;5077383;28;20048;-55
2023/05/04 09:51:22;;;;;;;11.55;5.65;;;14.20;99.90;;;;;;5076206;28;20047;-59
2023/05/04 09:53:50;;;;;;;11.68;4.75;;;14.40;99.90;;;;;;5069050;28;20083;-59
2023/05/04 09:56:19;;;;;;;9.13;5.00;;;14.40;99.90;;;;;;5071482;28;20044;-59
2023/05/04 09:58:45;;;;;;;11.13;4.97;;;14.50;99.90;;;;;;5074570;28;20059;-59
2023/05/04 10:01:11;;;;;;;11.05;4.95;;;14.70;99.90;;;;;;5076737;28;20124;-58
2023/05/04 10:03:37;;;;;;;10.65;5.95;;;14.70;99.90;;;;;;5075157;28;20041;-59
2023/05/04 10:06:04;;;;;;;10.23;5.25;;;14.70;99.90;;;;;;5076461;28;20053;-59
2023/05/04 10:08:31;;;;;;;10.48;5.13;;;14.90;99.90;;;;;;5065272;28;20085;-59
2023/05/04 10:10:57;;;;;;;11.10;4.45;;;15.10;99.90;;;;;;5077486;28;20040;-59
2023/05/04 10:13:23;;;;;;;10.07;4.97;;;15.20;99.90;;;;;;5062703;28;20074;-60
2023/05/04 10:15:51;;;;;;;9.48;4.60;;;15.20;99.90;;;;;;5095267;28;20388;-59
2023/05/04 10:18:44;;;;;;;11.98;5.20;;;15.20;99.90;;;;;;5097003;28;20051;-58
2023/05/04 10:21:27;;;;;;;11.20;4.82;;;15.30;99.90;;;;;;5084824;28;20419;-59
2023/05/04 10:23:53;;;;;;;8.68;4.68;;;15.30;99.90;;;;;;5057542;28;20052;-59
2023/05/04 10:26:48;;;;;;;12.80;5.78;;;15.40;99.90;;;;;;5074807;28;20072;-59
2023/05/04 10:29:27;;;;;;;10.93;4.85;;;15.60;99.90;;;;;;5038227;28;20550;-59
2023/05/04 10:31:53;;;;;;;9.57;5.05;;;15.90;99.90;;;;;;5075962;28;20555;-59
2023/05/04 10:34:30;;;;;;;11.10;4.88;;;16.00;99.90;;;;;;5076670;28;20071;-58
2023/05/04 10:36:57;;;;;;;11.00;4.95;;;16.10;99.90;;;;;;5073075;28;20056;-58
2023/05/04 10:39:31;;;;;;;10.20;5.32;;;16.10;99.90;;;;;;5075032;28;20063;-58
2023/05/04 10:42:07;;;;;;;10.48;4.82;;;16.20;99.90;;;;;;5073415;28;20075;-59
2023/05/04 10:44:52;;;;;;;12.10;5.28;;;16.30;99.90;;;;;;5078334;28;20043;-58
2023/05/04 10:47:30;;;;;;;9.77;4.03;;;16.40;99.90;;;;;;5081049;28;20137;-59
2023/05/04 10:50:04;;;;;;;9.25;4.93;;;16.40;99.90;;;;;;5076794;28;20076;-59
2023/05/04 10:52:50;;;;;;;10.85;4.95;;;16.50;99.90;;;;;;5060823;28;20053;-59
2023/05/04 10:55:17;;;;;;;12.07;5.13;;;16.40;99.90;;;;;;5075570;28;20041;-59
2023/05/04 10:57:56;;;;;;;9.70;5.50;;;16.40;99.90;;;;;;5079194;28;20046;-59
2023/05/04 11:00:38;;;;;;;8.85;4.22;;;16.50;99.90;;;;;;5079510;28;20083;-59
2023/05/04 11:03:06;;;;;;;10.02;4.35;;;16.70;99.90;;;;;;5085319;28;20068;-58
2023/05/04 11:05:45;;;;;;;10.25;4.97;;;16.70;99.90;;;;;;5078195;28;20079;-58
2023/05/04 11:08:23;;;;;;;8.48;4.97;;;16.60;99.90;;;;;;5089362;28;20476;-58
2023/05/04 11:11:03;;;;;;;12.80;5.22;;;16.80;99.90;;;;;;5075149;28;20543;-58
2023/05/04 11:13:32;;;;;;;10.63;4.57;;;16.90;99.90;;;;;;5080015;28;20059;-58
2023/05/04 11:15:58;;;;;;;9.90;5.68;;;16.90;99.90;;;;;;5077851;28;20045;-59
2023/05/04 11:18:36;;;;;;;7.50;4.57;;;17.10;99.90;;;;;;5079408;28;20037;-59
2023/05/04 11:21:02;;;;;;;9.38;4.50;;;17.00;99.90;;;;;;5078228;28;20360;-58
2023/05/04 11:23:29;;;;;;;8.52;4.63;;;17.10;99.90;;;;;;5078769;28;20044;-59
2023/05/04 11:25:55;;;;;;;10.93;5.07;;;17.10;99.90;;;;;;5079526;28;20044;-58
2023/05/04 11:28:37;;;;;;;10.57;4.88;;;17.20;99.90;;;;;;5077596;28;20067;-59
2023/05/04 11:31:16;;;;;;;7.78;4.50;;;17.30;99.90;;;;;;5080008;28;20056;-58
2023/05/04 11:33:53;;;;;;;9.02;4.40;;;17.30;99.90;;;;;;5078641;28;20056;-59
2023/05/04 11:36:20;;;;;;;10.52;4.78;;;17.40;99.90;;;;;;5077293;28;20056;-58
2023/05/04 11:38:47;;;;;;;9.02;4.32;;;17.20;99.90;;;;;;5079526;28;20064;-57
2023/05/04 11:41:12;;;;;;;10.35;5.20;;;17.40;99.90;;;;;;5076580;28;20037;-58
2023/05/04 11:43:41;;;;;;;10.02;4.22;;;17.50;99.90;;;;;;5085224;28;20135;-58
2023/05/04 11:46:07;;;;;;;8.50;4.75;;;17.70;99.90;;;;;;5091812;28;20043;-58
2023/05/04 11:48:35;;;;;;;10.80;4.55;;;17.70;99.90;;;;;;5099416;28;20578;-58
2023/05/04 11:51:04;;;;;;;11.70;4.60;;;17.50;99.00;;;;;;5098518;28;20383;-59
2023/05/04 11:53:39;;;;;;;10.57;4.55;;;17.50;99.00;;;;;;5098170;28;20097;-58
2023/05/04 11:56:07;;;;;;;11.27;5.60;;;17.50;98.80;;;;;;5098854;28;20562;-58
2023/05/04 11:58:33;;;;;;;8.95;4.68;;;17.60;99.90;;;;;;5096639;28;20040;-59
2023/05/04 12:00:59;;;;;;;9.05;4.35;;;17.70;99.70;;;;;;5099406;28;20102;-59
2023/05/04 12:03:40;;;;;;;11.82;5.07;;;17.80;99.90;;;;;;5097412;28;20067;-58
2023/05/04 12:06:06;;;;;;;11.80;5.00;;;17.70;99.00;;;;;;5098247;28;20048;-58
2023/05/04 12:08:40;;;;;;;11.82;5.15;;;17.80;98.90;;;;;;5080934;28;20059;-59
2023/05/04 12:11:24;;;;;;;10.95;5.55;;;17.80;99.10;;;;;;5097065;28;20087;-58
2023/05/04 12:14:04;;;;;;;12.48;6.13;;;17.90;98.90;;;;;;5098063;28;20044;-59
2023/05/04 12:16:29;;;;;;;7.78;4.55;;;17.90;97.80;;;;;;5096898;28;20052;-58
2023/05/04 12:19:07;;;;;;;10.63;4.78;;;18.00;99.40;;;;;;5097349;28;20657;-58
2023/05/04 12:21:34;;;;;;;11.65;5.43;;;18.20;98.50;;;;;;5098143;28;20050;-59
2023/05/04 12:24:01;;;;;;;10.75;4.85;;;18.20;99.70;;;;;;5095511;28;20040;-59
2023/05/04 12:26:27;;;;;;;10.18;5.07;;;18.10;99.10;;;;;;5097966;28;20040;-59
2023/05/04 12:28:53;;;;;;;10.50;5.00;;;18.00;99.20;;;;;;5095824;28;20579;-59
2023/05/04 12:31:18;;;;;;;11.10;5.10;;;18.20;99.30;;;;;;5080108;28;20077;-58
2023/05/04 12:33:44;;;;;;;9.57;4.32;;;18.20;99.20;;;;;;5097216;28;20091;-59
2023/05/04 12:36:10;;;;;;;9.55;5.05;;;18.20;97.80;;;;;;5096714;28;20032;-58
2023/05/04 12:38:39;;;;;;;8.68;4.25;;;18.30;97.20;;;;;;5097736;28;20089;-59
2023/05/04 12:41:09;;;;;;;8.90;4.93;;;18.40;98.10;;;;;;5096115;28;20486;-59
2023/05/04 12:43:35;;;;;;;8.77;4.85;;;18.30;96.50;;;;;;5098249;28;20047;-58
2023/05/04 12:46:01;;;;;;;10.82;4.75;;;18.50;98.40;;;;;;5096659;28;20075;-58